Terminal Aerodrome Forecast
Issued by NWS

Home | Current Version | Previous Version | Text Only | Print | Product List | Glossary On
Versions: 1 2 3 4 5 6 7 8 9 10 11 12 13
160
FTUS44 KTSA 271140
TAFXNA
TAF
KXNA 271140Z 2712/2812 00000KT P6SM VCTS BKN050CB BKN150
     FM271400 VRB03KT P6SM SCT035 BKN150
     FM271900 20008KT P6SM VCTS SCT050CB BKN100
     FM280100 VRB03KT P6SM BKN120 PROB30 2801/2805 -TSRA BKN050CB
     FM280600 00000KT P6SM FEW030 SCT150=

USA.gov is the U.S. government's official web portal to all federal, state and local government web resources and services.